createdAt,value
2023-03-15T00:00:02.516Z,3.97
2023-03-15T00:02:32.420Z,3.65
2023-03-15T00:05:01.765Z,3.60
2023-03-15T00:07:29.912Z,3.95
2023-03-15T00:09:58.096Z,3.30
2023-03-15T00:12:26.013Z,3.80
2023-03-15T00:14:54.082Z,4.20
2023-03-15T00:17:22.921Z,4.50
2023-03-15T00:19:50.964Z,4.30
2023-03-15T00:22:23.273Z,4.22
2023-03-15T00:24:51.197Z,4.90
2023-03-15T00:27:19.007Z,4.47
2023-03-15T00:29:46.982Z,5.18
2023-03-15T00:32:14.974Z,4.30
2023-03-15T00:34:49.287Z,4.55
2023-03-15T00:37:19.762Z,4.03
2023-03-15T00:39:49.783Z,4.95
2023-03-15T00:42:17.573Z,4.60
2023-03-15T00:44:46.429Z,4.28
2023-03-15T00:47:15.976Z,4.38
2023-03-15T00:49:43.756Z,4.28
2023-03-15T00:52:12.632Z,4.60
2023-03-15T00:54:41.909Z,5.10
2023-03-15T00:57:11.316Z,4.80
2023-03-15T00:59:39.301Z,4.03
2023-03-15T01:02:08.184Z,4.18
2023-03-15T01:04:36.547Z,3.92
2023-03-15T01:07:05.012Z,3.90
2023-03-15T01:09:32.792Z,4.20
2023-03-15T01:12:00.784Z,3.70
2023-03-15T01:14:30.016Z,3.78
2023-03-15T01:16:57.778Z,3.20
2023-03-15T01:19:25.600Z,3.28
2023-03-15T01:21:53.561Z,3.22
2023-03-15T01:24:21.504Z,3.30
2023-03-15T01:26:49.407Z,3.17
2023-03-15T01:29:17.992Z,2.70
2023-03-15T01:31:47.232Z,3.22
2023-03-15T01:34:15.047Z,2.80
2023-03-15T01:36:42.806Z,3.30
2023-03-15T01:39:11.196Z,2.45
2023-03-15T01:41:39.157Z,2.53
2023-03-15T01:44:10.606Z,3.13
2023-03-15T01:46:38.551Z,3.30
2023-03-15T01:49:12.687Z,3.00
2023-03-15T01:51:44.312Z,2.40
2023-03-15T01:54:19.226Z,2.80
2023-03-15T01:56:49.938Z,3.70
2023-03-15T01:59:26.860Z,2.67
2023-03-15T02:01:56.250Z,2.60
2023-03-15T02:04:31.457Z,2.80
2023-03-15T02:07:02.161Z,2.78
2023-03-15T02:09:37.417Z,3.05
2023-03-15T02:12:06.612Z,2.20
2023-03-15T02:14:35.449Z,2.35
2023-03-15T02:17:03.325Z,2.58
2023-03-15T02:19:45.931Z,2.42
2023-03-15T02:22:28.260Z,2.15
2023-03-15T02:25:02.697Z,2.45
2023-03-15T02:27:34.556Z,2.10
2023-03-15T02:30:04.041Z,2.25
2023-03-15T02:32:33.485Z,2.10
2023-03-15T02:35:01.276Z,1.95
2023-03-15T02:37:29.163Z,2.40
2023-03-15T02:39:57.012Z,2.20
2023-03-15T02:42:25.133Z,1.95
2023-03-15T02:44:55.491Z,2.13
2023-03-15T02:47:28.086Z,1.85
2023-03-15T02:49:56.096Z,2.00
2023-03-15T02:52:24.466Z,1.75
2023-03-15T02:54:52.232Z,1.80
2023-03-15T02:57:21.091Z,1.67
2023-03-15T02:59:50.951Z,1.75
2023-03-15T03:02:20.725Z,1.70
2023-03-15T03:04:48.805Z,1.83
2023-03-15T03:07:17.036Z,1.77
2023-03-15T03:09:44.922Z,1.80
2023-03-15T03:12:12.884Z,1.75
2023-03-15T03:14:43.353Z,1.70
2023-03-15T03:17:11.382Z,1.77
2023-03-15T03:19:40.719Z,1.85
2023-03-15T03:22:08.913Z,2.05
2023-03-15T03:24:36.704Z,1.80
2023-03-15T03:27:04.988Z,2.30
2023-03-15T03:29:36.926Z,1.77
2023-03-15T03:32:06.582Z,2.58
2023-03-15T03:34:34.572Z,2.20
2023-03-15T03:37:04.284Z,1.70
2023-03-15T03:39:32.034Z,2.10
2023-03-15T03:41:59.928Z,2.13
2023-03-15T03:44:27.764Z,1.92
2023-03-15T03:46:55.493Z,2.05
2023-03-15T03:49:23.290Z,1.80
2023-03-15T03:51:51.164Z,2.55
2023-03-15T03:54:21.646Z,3.10
2023-03-15T03:56:49.866Z,2.15
2023-03-15T03:59:17.890Z,2.28
2023-03-15T04:01:45.724Z,2.33
2023-03-15T04:04:14.417Z,2.00
2023-03-15T04:06:45.980Z,2.70
2023-03-15T04:09:15.746Z,2.40
2023-03-15T04:11:46.536Z,2.50
2023-03-15T04:14:15.824Z,2.90
2023-03-15T04:16:43.693Z,2.55
2023-03-15T04:19:12.885Z,2.75
2023-03-15T04:21:47.670Z,2.72
2023-03-15T04:24:15.656Z,2.70
2023-03-15T04:26:44.969Z,3.03
2023-03-15T04:29:14.590Z,2.97
2023-03-15T04:31:43.352Z,2.70
2023-03-15T04:34:11.322Z,2.78
2023-03-15T04:36:39.140Z,2.85
2023-03-15T04:39:07.511Z,2.50
2023-03-15T04:41:35.940Z,2.88
2023-03-15T04:44:06.185Z,3.05
2023-03-15T04:46:34.770Z,3.22
2023-03-15T04:49:05.047Z,2.67
2023-03-15T04:51:34.375Z,3.42
2023-03-15T04:54:02.342Z,2.50
2023-03-15T04:56:31.859Z,3.38
2023-03-15T04:58:59.934Z,3.08
2023-03-15T05:01:32.440Z,3.15
2023-03-15T05:04:00.970Z,2.88
2023-03-15T05:06:29.681Z,3.28
2023-03-15T05:08:57.565Z,2.80
2023-03-15T05:11:25.522Z,3.80
2023-03-15T05:13:53.649Z,3.72
2023-03-15T05:16:25.879Z,3.60
2023-03-15T05:18:56.709Z,3.50
2023-03-15T05:21:24.566Z,4.65
2023-03-15T05:23:52.714Z,4.90
2023-03-15T05:26:20.548Z,5.85
2023-03-15T05:28:48.364Z,3.65
2023-03-15T05:31:16.248Z,7.30
2023-03-15T05:33:46.908Z,4.57
2023-03-15T05:36:17.576Z,3.55
2023-03-15T05:38:45.836Z,3.42
2023-03-15T05:41:18.198Z,3.70
2023-03-15T05:43:46.373Z,2.83
2023-03-15T05:46:14.818Z,3.75
2023-03-15T05:48:42.897Z,3.05
2023-03-15T05:51:10.927Z,2.97
2023-03-15T05:53:40.149Z,3.20
2023-03-15T05:56:08.897Z,2.75
2023-03-15T05:58:36.774Z,3.33
2023-03-15T06:01:05.786Z,2.90
2023-03-15T06:03:33.948Z,3.45
2023-03-15T06:06:02.025Z,3.90
2023-03-15T06:08:30.000Z,3.60
2023-03-15T06:10:59.242Z,3.47
2023-03-15T06:13:27.315Z,3.38
2023-03-15T06:15:55.170Z,4.22
2023-03-15T06:18:22.974Z,3.60
2023-03-15T06:20:50.871Z,3.97
2023-03-15T06:23:18.855Z,4.10
2023-03-15T06:25:47.184Z,3.20
2023-03-15T06:28:22.398Z,4.22
2023-03-15T06:30:51.647Z,3.60
2023-03-15T06:33:19.642Z,3.15
2023-03-15T06:35:47.971Z,3.65
2023-03-15T06:38:15.994Z,3.70
2023-03-15T06:40:45.298Z,3.78
2023-03-15T06:43:18.366Z,3.75
2023-03-15T06:45:46.519Z,4.93
2023-03-15T06:48:15.794Z,3.30
2023-03-15T06:50:47.269Z,4.97
2023-03-15T06:53:16.493Z,3.13
2023-03-15T06:55:44.351Z,4.60
2023-03-15T06:58:12.453Z,4.35
2023-03-15T07:00:41.214Z,3.65
2023-03-15T07:03:09.142Z,4.95
2023-03-15T07:05:39.068Z,3.45
2023-03-15T07:08:07.225Z,4.70
2023-03-15T07:10:35.424Z,3.90
2023-03-15T07:13:05.200Z,3.40
2023-03-15T07:15:33.476Z,3.80
2023-03-15T07:18:02.235Z,3.85
2023-03-15T07:20:31.763Z,3.97
2023-03-15T07:23:01.304Z,3.63
2023-03-15T07:25:29.192Z,4.00
2023-03-15T07:27:57.000Z,3.22
2023-03-15T07:30:24.878Z,3.72
2023-03-15T07:32:52.889Z,3.30
2023-03-15T07:35:21.764Z,3.13
2023-03-15T07:37:49.495Z,3.40
2023-03-15T07:40:19.082Z,2.95
2023-03-15T07:42:47.096Z,3.65
2023-03-15T07:45:15.064Z,3.10
2023-03-15T07:47:42.996Z,2.63
2023-03-15T07:50:12.617Z,2.80
2023-03-15T07:52:41.349Z,2.47
2023-03-15T07:55:10.142Z,3.25
2023-03-15T07:57:39.346Z,3.00
2023-03-15T08:00:09.249Z,2.88
2023-03-15T08:02:37.872Z,1.73
2023-03-15T08:05:06.104Z,2.25
2023-03-15T08:07:34.275Z,2.03
2023-03-15T08:10:02.768Z,2.25
2023-03-15T08:12:31.238Z,2.08
2023-03-15T08:15:00.588Z,2.75
2023-03-15T08:17:28.423Z,2.05
2023-03-15T08:19:56.244Z,1.98
2023-03-15T08:22:24.380Z,1.90
2023-03-15T08:24:53.357Z,2.00
2023-03-15T08:27:21.146Z,2.00
2023-03-15T08:29:48.878Z,2.30
2023-03-15T08:32:19.815Z,1.83
2023-03-15T08:34:47.776Z,2.20
2023-03-15T08:37:15.566Z,2.50
2023-03-15T08:39:43.803Z,2.00
2023-03-15T08:42:11.622Z,1.50
2023-03-15T08:44:39.482Z,1.87
2023-03-15T08:47:07.445Z,2.10
2023-03-15T08:49:37.170Z,2.30
2023-03-15T08:52:05.518Z,2.20
2023-03-15T08:54:33.388Z,1.80
2023-03-15T08:57:01.342Z,1.53
2023-03-15T08:59:32.045Z,1.93
2023-03-15T09:02:01.463Z,1.52
2023-03-15T09:04:29.550Z,1.52
2023-03-15T09:06:58.992Z,1.30
2023-03-15T09:09:27.061Z,2.85
2023-03-15T09:11:55.552Z,1.73
2023-03-15T09:14:23.289Z,2.03
2023-03-15T09:16:51.182Z,3.13
2023-03-15T09:19:19.142Z,1.90
2023-03-15T09:21:47.322Z,1.90
2023-03-15T09:24:16.687Z,2.47
2023-03-15T09:26:44.582Z,2.00
2023-03-15T09:29:12.785Z,1.40
2023-03-15T09:31:40.659Z,1.65
2023-03-15T09:34:08.426Z,1.90
2023-03-15T09:36:36.201Z,3.17
2023-03-15T09:39:04.616Z,2.40
2023-03-15T09:41:43.437Z,2.00
2023-03-15T09:44:21.465Z,2.53
2023-03-15T09:47:01.148Z,1.63
2023-03-15T09:49:38.470Z,1.60
2023-03-15T09:52:14.771Z,2.40
2023-03-15T09:54:49.518Z,1.80
2023-03-15T09:57:23.395Z,2.10
2023-03-15T09:59:55.237Z,2.05
2023-03-15T10:02:26.341Z,1.80
2023-03-15T10:04:59.902Z,1.70
2023-03-15T10:07:27.838Z,2.00
2023-03-15T10:09:59.002Z,1.60
2023-03-15T10:12:32.584Z,1.50
2023-03-15T10:15:18.118Z,2.42
2023-03-15T10:17:53.576Z,1.40
2023-03-15T10:20:26.472Z,1.67
2023-03-15T10:23:00.180Z,1.70
2023-03-15T10:25:29.790Z,1.35
2023-03-15T10:28:02.241Z,1.63
2023-03-15T10:30:31.973Z,1.42
2023-03-15T10:33:03.878Z,1.92
2023-03-15T10:35:33.021Z,1.63
2023-03-15T10:38:02.652Z,1.40
2023-03-15T10:40:42.094Z,1.70
2023-03-15T10:43:23.889Z,1.30
2023-03-15T10:46:02.807Z,1.08
2023-03-15T10:48:32.654Z,2.55
2023-03-15T10:51:06.410Z,2.00
2023-03-15T10:53:35.828Z,1.92
2023-03-15T10:56:08.922Z,1.48
2023-03-15T10:59:01.687Z,1.20
2023-03-15T11:01:37.667Z,1.25
2023-03-15T11:04:16.741Z,1.40
2023-03-15T11:06:47.467Z,2.00
2023-03-15T11:09:16.694Z,1.45
2023-03-15T11:12:06.522Z,1.42
2023-03-15T11:14:39.110Z,1.90
2023-03-15T11:17:10.086Z,1.30
2023-03-15T11:19:42.894Z,1.40
2023-03-15T11:22:14.873Z,1.15
2023-03-15T11:24:42.870Z,1.17
2023-03-15T11:27:14.014Z,1.45
2023-03-15T11:29:47.562Z,2.00
2023-03-15T11:32:18.909Z,1.42
2023-03-15T11:34:54.121Z,1.20
2023-03-15T11:37:27.746Z,1.20
2023-03-15T11:40:10.756Z,1.50
2023-03-15T11:42:48.130Z,2.33
2023-03-15T11:45:25.448Z,1.35
2023-03-15T11:47:57.775Z,1.10
2023-03-15T11:50:25.585Z,1.90
2023-03-15T11:52:54.102Z,1.00
2023-03-15T11:55:24.507Z,1.60
2023-03-15T11:57:53.417Z,1.13
2023-03-15T12:00:54.118Z,1.40
2023-03-15T12:03:41.122Z,1.20
2023-03-15T12:06:47.920Z,1.00
2023-03-15T12:09:41.135Z,0.90
2023-03-15T12:12:37.086Z,0.88
2023-03-15T12:15:08.661Z,1.10
2023-03-15T12:17:43.746Z,1.08
2023-03-15T12:20:21.223Z,0.80
2023-03-15T12:22:53.602Z,1.10
2023-03-15T12:25:45.476Z,1.00
2023-03-15T12:28:24.250Z,1.42
2023-03-15T12:30:56.648Z,1.40
2023-03-15T12:33:26.520Z,1.00
2023-03-15T12:36:01.979Z,0.90
2023-03-15T12:38:37.740Z,0.95
2023-03-15T12:41:09.136Z,0.88
2023-03-15T12:43:39.094Z,0.73
2023-03-15T12:46:07.580Z,1.10
2023-03-15T12:48:35.645Z,1.15
2023-03-15T12:51:14.613Z,1.17
2023-03-15T12:53:52.818Z,1.10
2023-03-15T12:56:33.721Z,1.20
2023-03-15T12:59:06.918Z,1.83
2023-03-15T13:01:35.722Z,0.80
2023-03-15T13:04:05.203Z,1.30
2023-03-15T13:06:46.941Z,1.17
2023-03-15T13:09:28.900Z,1.23
2023-03-15T13:12:02.574Z,1.50
2023-03-15T13:14:43.085Z,1.80
2023-03-15T13:17:22.723Z,1.48
2023-03-15T13:19:55.926Z,1.60
2023-03-15T13:22:33.201Z,1.77
2023-03-15T13:25:09.979Z,1.42
2023-03-15T13:27:50.012Z,1.50
2023-03-15T13:30:34.958Z,1.73
2023-03-15T13:33:10.868Z,2.08
2023-03-15T13:35:45.143Z,1.52
2023-03-15T13:38:32.032Z,1.90
2023-03-15T13:41:02.019Z,1.60
2023-03-15T13:43:33.273Z,1.98
2023-03-15T13:46:01.839Z,1.65
2023-03-15T13:48:31.528Z,1.25
2023-03-15T13:51:05.947Z,1.80
2023-03-15T13:53:48.945Z,1.65
2023-03-15T13:56:19.990Z,1.38
2023-03-15T13:58:48.457Z,1.60
2023-03-15T14:01:18.234Z,1.40
2023-03-15T14:03:54.301Z,1.65
2023-03-15T14:06:24.904Z,1.67
2023-03-15T14:09:00.813Z,2.50
2023-03-15T14:11:38.371Z,2.13
2023-03-15T14:14:24.173Z,1.92
2023-03-15T14:17:05.000Z,2.05
2023-03-15T14:19:35.045Z,1.80
2023-03-15T14:22:05.468Z,1.45
2023-03-15T14:24:38.116Z,1.75
2023-03-15T14:27:09.406Z,1.65
2023-03-15T14:29:39.008Z,1.60
2023-03-15T14:32:10.218Z,1.70
2023-03-15T14:34:45.027Z,1.52
2023-03-15T14:37:31.101Z,1.90
2023-03-15T14:40:15.090Z,1.17
2023-03-15T14:42:43.242Z,1.75
2023-03-15T14:45:11.810Z,1.95
2023-03-15T14:47:55.466Z,1.50
2023-03-15T14:50:27.335Z,1.15
2023-03-15T14:52:57.125Z,1.50
2023-03-15T14:55:31.315Z,2.00
2023-03-15T14:57:59.011Z,1.60
2023-03-15T15:00:27.220Z,1.65
2023-03-15T15:02:56.859Z,1.60
2023-03-15T15:05:27.661Z,1.85
2023-03-15T15:08:03.775Z,1.77
2023-03-15T15:10:34.832Z,1.70
2023-03-15T15:13:06.917Z,1.80
2023-03-15T15:15:51.822Z,1.50
2023-03-15T15:18:22.948Z,2.00
2023-03-15T15:20:54.331Z,1.65
2023-03-15T15:23:24.467Z,2.10
2023-03-15T15:25:57.128Z,1.90
2023-03-15T15:28:34.838Z,1.90
2023-03-15T15:31:03.420Z,1.75
2023-03-15T15:33:31.697Z,1.77
2023-03-15T15:36:04.599Z,1.50
2023-03-15T15:38:39.028Z,1.48
2023-03-15T15:41:14.510Z,1.23
2023-03-15T15:43:43.337Z,1.55
2023-03-15T15:46:13.182Z,1.20
2023-03-15T15:48:41.880Z,1.40
2023-03-15T15:51:27.796Z,1.30
2023-03-15T15:53:57.792Z,1.70
2023-03-15T15:56:33.162Z,1.55
2023-03-15T15:59:03.129Z,1.30
2023-03-15T16:01:31.804Z,1.30
2023-03-15T16:04:00.454Z,1.00
2023-03-15T16:06:28.648Z,1.55
2023-03-15T16:08:56.954Z,1.70
2023-03-15T16:11:24.697Z,1.45
2023-03-15T16:13:54.757Z,1.50
2023-03-15T16:16:22.690Z,1.70
2023-03-15T16:18:51.095Z,4.13
2023-03-15T16:21:26.438Z,1.85
2023-03-15T16:23:59.504Z,2.15
2023-03-15T16:26:27.688Z,1.80
2023-03-15T16:28:57.009Z,1.95
2023-03-15T16:31:24.864Z,1.80
2023-03-15T16:33:52.657Z,1.80
2023-03-15T16:36:21.990Z,2.70
2023-03-15T16:38:50.729Z,1.77
2023-03-15T16:41:18.991Z,1.95
2023-03-15T16:43:49.186Z,2.63
2023-03-15T16:46:19.899Z,2.22
2023-03-15T16:48:47.724Z,3.00
2023-03-15T16:51:16.937Z,2.38
2023-03-15T16:53:45.712Z,1.85
2023-03-15T16:56:15.419Z,1.48
2023-03-15T16:58:44.545Z,2.25
2023-03-15T17:01:13.374Z,2.10
2023-03-15T17:03:42.937Z,1.80
2023-03-15T17:06:20.231Z,2.22
2023-03-15T17:08:48.620Z,2.42
2023-03-15T17:11:17.290Z,2.25
2023-03-15T17:13:45.163Z,2.58
2023-03-15T17:16:15.193Z,2.25
2023-03-15T17:18:44.999Z,2.90
2023-03-15T17:21:15.431Z,2.10
2023-03-15T17:23:44.031Z,2.63
2023-03-15T17:26:14.374Z,2.47
2023-03-15T17:28:43.677Z,1.75
2023-03-15T17:31:24.928Z,2.08
2023-03-15T17:33:54.361Z,2.20
2023-03-15T17:36:24.746Z,2.15
2023-03-15T17:38:52.997Z,2.30
2023-03-15T17:41:23.106Z,2.17
2023-03-15T17:43:52.772Z,2.80
2023-03-15T17:46:22.783Z,2.90
2023-03-15T17:48:50.867Z,3.05
2023-03-15T17:51:23.287Z,2.85
2023-03-15T17:53:51.872Z,2.92
2023-03-15T17:56:19.987Z,2.92
2023-03-15T17:58:47.922Z,3.25
2023-03-15T18:01:18.030Z,3.63
2023-03-15T18:03:46.539Z,3.95
2023-03-15T18:06:15.016Z,3.58
2023-03-15T18:08:45.546Z,5.32
2023-03-15T18:11:18.408Z,5.32
2023-03-15T18:13:47.742Z,4.75
2023-03-15T18:16:15.943Z,5.05
2023-03-15T18:18:43.745Z,5.70
2023-03-15T18:21:14.515Z,7.43
2023-03-15T18:23:42.831Z,5.57
2023-03-15T18:26:14.970Z,4.68
2023-03-15T18:28:43.279Z,3.75
2023-03-15T18:31:15.607Z,4.10
2023-03-15T18:33:43.948Z,4.05
2023-03-15T18:36:12.789Z,4.32
2023-03-15T18:38:41.712Z,3.45
2023-03-15T18:41:20.346Z,6.50
2023-03-15T18:46:39.784Z,3.45
2023-03-15T18:49:08.793Z,3.88
2023-03-15T18:51:38.377Z,3.97
2023-03-15T18:54:07.217Z,4.45
2023-03-15T18:56:37.009Z,3.92
2023-03-15T18:59:07.685Z,4.95
2023-03-15T19:01:36.477Z,4.65
2023-03-15T19:04:04.976Z,4.80
2023-03-15T19:06:33.294Z,4.85
2023-03-15T19:09:02.000Z,5.15
2023-03-15T19:11:31.664Z,5.28
2023-03-15T19:14:01.987Z,4.95
2023-03-15T19:16:34.237Z,5.30
2023-03-15T19:19:02.334Z,5.68
2023-03-15T19:21:30.578Z,5.53
2023-03-15T19:24:07.745Z,6.13
2023-03-15T19:26:36.452Z,5.43
2023-03-15T19:29:05.786Z,5.80
2023-03-15T19:31:34.141Z,4.90
2023-03-15T19:34:02.290Z,5.80
2023-03-15T19:36:31.766Z,6.22
2023-03-15T19:39:05.661Z,5.70
2023-03-15T19:41:34.952Z,4.65
2023-03-15T19:44:06.686Z,5.00
2023-03-15T19:46:38.509Z,4.93
2023-03-15T19:49:06.770Z,5.65
2023-03-15T19:51:35.150Z,5.53
2023-03-15T19:54:03.760Z,6.53
2023-03-15T19:56:32.170Z,6.57
2023-03-15T19:59:04.738Z,5.95
2023-03-15T20:01:40.873Z,6.57
2023-03-15T20:04:09.204Z,6.28
2023-03-15T20:06:39.958Z,5.20
2023-03-15T20:09:09.240Z,6.35
2023-03-15T20:11:38.314Z,6.22
2023-03-15T20:14:06.957Z,7.50
2023-03-15T20:16:36.925Z,5.75
2023-03-15T20:19:04.658Z,8.65
2023-03-15T20:21:34.615Z,8.38
2023-03-15T20:24:04.915Z,6.50
2023-03-15T20:26:33.082Z,6.90
2023-03-15T20:29:12.076Z,6.90
2023-03-15T20:31:41.688Z,7.57
2023-03-15T20:34:10.290Z,7.50
2023-03-15T20:36:38.587Z,7.00
2023-03-15T20:39:07.727Z,7.22
2023-03-15T20:41:45.337Z,7.65
2023-03-15T20:44:14.022Z,7.90
2023-03-15T20:46:44.333Z,9.20
2023-03-15T20:52:01.168Z,7.25
2023-03-15T20:54:34.165Z,7.60
2023-03-15T21:02:48.165Z,7.43
2023-03-15T21:05:24.632Z,7.95
2023-03-15T21:07:55.995Z,8.50
2023-03-15T21:10:25.097Z,8.23
2023-03-15T21:12:53.253Z,8.80
2023-03-15T21:15:21.554Z,8.88
2023-03-15T21:17:51.093Z,8.05
2023-03-15T21:20:21.693Z,9.90
2023-03-15T21:22:49.873Z,8.00
2023-03-15T21:25:20.558Z,8.50
2023-03-15T21:27:48.831Z,8.82
2023-03-15T21:30:17.108Z,7.93
2023-03-15T21:32:45.581Z,8.07
2023-03-15T21:35:17.072Z,9.07
2023-03-15T21:37:45.446Z,8.95
2023-03-15T21:40:15.033Z,9.52
2023-03-15T21:42:43.628Z,9.23
2023-03-15T21:45:12.569Z,9.10
2023-03-15T21:47:41.649Z,9.75
2023-03-15T21:50:12.756Z,9.40
2023-03-15T21:52:46.072Z,9.88
2023-03-15T21:55:15.853Z,10.15
2023-03-15T21:57:44.374Z,10.73
2023-03-15T22:00:16.868Z,10.23
2023-03-15T22:02:44.832Z,9.75
2023-03-15T22:05:13.439Z,9.15
2023-03-15T22:07:43.505Z,10.13
2023-03-15T22:10:12.658Z,9.00
2023-03-15T22:12:42.551Z,10.00
2023-03-15T22:15:11.586Z,9.20
2023-03-15T22:17:39.704Z,9.45
2023-03-15T22:20:12.796Z,9.52
2023-03-15T22:22:42.319Z,10.07
2023-03-15T22:25:11.184Z,10.43
2023-03-15T22:27:39.334Z,12.43
2023-03-15T22:30:08.635Z,10.13
2023-03-15T22:32:36.883Z,9.80
2023-03-15T22:35:06.027Z,10.48
2023-03-15T22:37:36.868Z,11.27
2023-03-15T22:40:07.468Z,9.27
2023-03-15T22:42:35.400Z,9.80
2023-03-15T22:45:06.099Z,10.30
2023-03-15T22:47:34.599Z,9.55
2023-03-15T22:50:03.517Z,9.48
2023-03-15T22:52:31.757Z,10.05
2023-03-15T22:54:59.846Z,9.65
2023-03-15T22:57:29.844Z,10.10
2023-03-15T22:59:59.248Z,9.52
2023-03-15T23:02:29.208Z,9.85
2023-03-15T23:04:57.202Z,9.50
2023-03-15T23:07:25.111Z,9.50
2023-03-15T23:09:53.796Z,9.57
2023-03-15T23:12:27.128Z,9.25
2023-03-15T23:15:04.524Z,9.30
2023-03-15T23:17:32.542Z,9.43
2023-03-15T23:20:00.787Z,9.95
2023-03-15T23:22:29.304Z,9.63
2023-03-15T23:24:58.142Z,10.85
2023-03-15T23:27:50.282Z,10.18
2023-03-15T23:30:35.925Z,10.20
2023-03-15T23:33:05.248Z,10.65
2023-03-15T23:35:40.027Z,9.85
2023-03-15T23:38:09.083Z,10.57
2023-03-15T23:40:38.402Z,10.10
2023-03-15T23:43:09.717Z,9.15
2023-03-15T23:45:41.985Z,10.35
2023-03-15T23:48:12.903Z,11.25
2023-03-15T23:50:44.599Z,10.70
2023-03-15T23:53:12.912Z,10.65
2023-03-15T23:55:42.802Z,11.68
2023-03-15T23:58:11.108Z,10.73
